עמוד ראשי
METAR-TAF:

METAR-TAF

שדות תעופה :

חרבין, הרפובליקה העממית של סין

קו רוחב: 45-45N, קו אורך: 126-46E, גובה: 143מטר

תצפית מזג אוויר נוכחית

הדו"ח נערך לפני 26דקות, בשעה 12:00 UTC
רוח 6קשר מכיוון דרום-מזרח, משתנה בין מזרח/דרום-מזרח ו דרום
טמפרטורת 16 צלסיוס
לחות 36%
לחץ 1008 hPa
ראות 10 קילומטר או יותר
ללא עננים שבסיסם נמוך מ 5000 רגל או קומולונימבוס

METAR: ZYHB 171200Z 14003MPS 110V180 CAVOK 16/01 Q1008 NOSIG

זמן: 20:26 (12:26 UTC)

תחזית

הדו"ח נערך לפני 3 שעות ו 21דקות, בשעה 09:05 UTC
תחזית בתוקף מ 17 ב 12 UTC עד 18 ב 12 UTC
רוח 8קשר מכיוון דרום/דרום-מזרח
ראות: 6000מטר
עננים פזורים בגובה 3300רגל
יעשה מ
17 ב 23 UTC עד 18 ב 01 UTC
רוח 16קשר מכיוון צפון-מערב עם משבים עד 27קשר

TAF: ZYHB 170905Z 1712/1812 15004MPS 6000 SCT033 TX17/1806Z TN06/1721Z BECMG 1723/1801 32008G14MPS

תצפיות ותחזיות מזג אוויר לגבי יותר מ- 4,000 שדות תעופה ברחבי העולם. דוחות METAR ו- TAF.

התחנות הזמינות מסומנות בנקודות צהובות ואדומות על גבי המפה.

העבר את העכבר לנקודה הצבעונית על מנת לראות את שם התחנה.

לאחר מכן, לחץ כדי לראות את תוכן ואת תחזיות מזג האוויר.

כדי לשנות את המפה: לחץ על הכפתורים הירוקים עם הפלוס השחור כדי להתקרב; על הכפתור הירוק עם המקף כדי להתרחק; או בחיצים הירוקים למפות סמוכות.


METAR-TAF: